sensor_id;sensor_type;location;lat;lon;timestamp;pressure;altitude;pressure_sealevel;temperature;humidity
54042;BME280;41156;51.508;5.406;2023-02-10T00:02:05;103445.22;;;-0.01;100.00
54042;BME280;41156;51.508;5.406;2023-02-10T00:05:05;103449.09;;;-0.06;100.00
54042;BME280;41156;51.508;5.406;2023-02-10T00:08:06;103449.31;;;-0.11;100.00
54042;BME280;41156;51.508;5.406;2023-02-10T00:11:09;103457.59;;;-0.17;100.00
54042;BME280;41156;51.508;5.406;2023-02-10T00:14:12;103458.72;;;-0.21;100.00
54042;BME280;41156;51.508;5.406;2023-02-10T00:17:13;103468.72;;;-0.26;100.00
54042;BME280;41156;51.508;5.406;2023-02-10T00:20:15;103465.38;;;-0.30;100.00
54042;BME280;41156;51.508;5.406;2023-02-10T00:23:15;103470.94;;;-0.34;100.00
54042;BME280;41156;51.508;5.406;2023-02-10T00:26:16;103473.88;;;-0.41;100.00
54042;BME280;41156;51.508;5.406;2023-02-10T00:29:16;103480.22;;;-0.43;100.00
54042;BME280;41156;51.508;5.406;2023-02-10T00:32:17;103483.13;;;-0.48;100.00
54042;BME280;41156;51.508;5.406;2023-02-10T00:35:18;103472.63;;;-0.51;100.00
54042;BME280;41156;51.508;5.406;2023-02-10T00:38:18;103474.53;;;-0.53;100.00
54042;BME280;41156;51.508;5.406;2023-02-10T00:41:21;103475.59;;;-0.57;100.00
54042;BME280;41156;51.508;5.406;2023-02-10T00:44:21;103478.41;;;-0.60;100.00
54042;BME280;41156;51.508;5.406;2023-02-10T00:47:21;103467.06;;;-0.64;100.00
54042;BME280;41156;51.508;5.406;2023-02-10T00:50:23;103476.91;;;-0.66;100.00
54042;BME280;41156;51.508;5.406;2023-02-10T00:53:24;103478.88;;;-0.69;100.00
54042;BME280;41156;51.508;5.406;2023-02-10T00:56:24;103479.88;;;-0.72;100.00
54042;BME280;41156;51.508;5.406;2023-02-10T00:59:24;103482.66;;;-0.75;100.00
54042;BME280;41156;51.508;5.406;2023-02-10T01:02:25;103478.38;;;-0.78;100.00
54042;BME280;41156;51.508;5.406;2023-02-10T01:05:25;103477.75;;;-0.83;100.00
54042;BME280;41156;51.508;5.406;2023-02-10T01:08:26;103477.91;;;-0.86;100.00
54042;BME280;41156;51.508;5.406;2023-02-10T01:11:26;103483.38;;;-0.89;100.00
54042;BME280;41156;51.508;5.406;2023-02-10T01:14:26;103495.84;;;-0.91;100.00
54042;BME280;41156;51.508;5.406;2023-02-10T01:17:27;103494.13;;;-0.92;100.00
54042;BME280;41156;51.508;5.406;2023-02-10T01:20:27;103502.22;;;-0.95;100.00
54042;BME280;41156;51.508;5.406;2023-02-10T01:23:27;103493.50;;;-0.97;100.00
54042;BME280;41156;51.508;5.406;2023-02-10T01:26:28;103495.44;;;-1.01;100.00
54042;BME280;41156;51.508;5.406;2023-02-10T01:29:28;103500.81;;;-1.02;100.00
54042;BME280;41156;51.508;5.406;2023-02-10T01:32:28;103509.69;;;-1.03;100.00
54042;BME280;41156;51.508;5.406;2023-02-10T01:35:29;103516.88;;;-1.05;100.00
54042;BME280;41156;51.508;5.406;2023-02-10T01:38:29;103509.94;;;-1.08;100.00
54042;BME280;41156;51.508;5.406;2023-02-10T01:41:29;103517.09;;;-1.10;100.00
54042;BME280;41156;51.508;5.406;2023-02-10T01:47:30;103527.00;;;-1.14;100.00
54042;BME280;41156;51.508;5.406;2023-02-10T01:50:37;103517.41;;;-1.16;100.00
54042;BME280;41156;51.508;5.406;2023-02-10T01:53:38;103516.63;;;-1.18;100.00
54042;BME280;41156;51.508;5.406;2023-02-10T01:56:39;103499.88;;;-1.20;100.00
54042;BME280;41156;51.508;5.406;2023-02-10T01:59:41;103493.03;;;-1.24;100.00
54042;BME280;41156;51.508;5.406;2023-02-10T02:02:43;103486.69;;;-1.22;100.00
54042;BME280;41156;51.508;5.406;2023-02-10T02:05:44;103483.97;;;-1.20;100.00
54042;BME280;41156;51.508;5.406;2023-02-10T02:08:44;103481.38;;;-1.22;100.00
54042;BME280;41156;51.508;5.406;2023-02-10T02:12:10;103480.53;;;-1.22;100.00
54042;BME280;41156;51.508;5.406;2023-02-10T02:15:27;103479.69;;;-1.23;100.00
54042;BME280;41156;51.508;5.406;2023-02-10T02:18:41;103487.50;;;-1.20;100.00
54042;BME280;41156;51.508;5.406;2023-02-10T02:25:05;103491.94;;;-1.20;100.00
54042;BME280;41156;51.508;5.406;2023-02-10T02:35:15;103498.91;;;-1.18;100.00
54042;BME280;41156;51.508;5.406;2023-02-10T02:38:17;103499.69;;;-1.16;100.00
54042;BME280;41156;51.508;5.406;2023-02-10T02:41:23;103504.84;;;-1.13;100.00
54042;BME280;41156;51.508;5.406;2023-02-10T02:44:23;103506.47;;;-1.10;100.00
54042;BME280;41156;51.508;5.406;2023-02-10T02:53:55;103499.41;;;-1.09;100.00
54042;BME280;41156;51.508;5.406;2023-02-10T02:57:07;103499.59;;;-1.14;100.00
54042;BME280;41156;51.508;5.406;2023-02-10T03:00:22;103488.22;;;-1.16;100.00
54042;BME280;41156;51.508;5.406;2023-02-10T03:03:24;103487.34;;;-1.17;100.00
54042;BME280;41156;51.508;5.406;2023-02-10T03:06:24;103485.63;;;-1.18;100.00
54042;BME280;41156;51.508;5.406;2023-02-10T03:09:25;103493.66;;;-1.19;100.00
54042;BME280;41156;51.508;5.406;2023-02-10T03:12:25;103492.00;;;-1.22;100.00
54042;BME280;41156;51.508;5.406;2023-02-10T03:15:25;103507.06;;;-1.22;100.00
54042;BME280;41156;51.508;5.406;2023-02-10T03:18:26;103507.06;;;-1.22;100.00
54042;BME280;41156;51.508;5.406;2023-02-10T03:21:26;103519.56;;;-1.24;100.00
54042;BME280;41156;51.508;5.406;2023-02-10T03:24:26;103524.94;;;-1.26;100.00
54042;BME280;41156;51.508;5.406;2023-02-10T03:27:27;103519.75;;;-1.29;100.00
54042;BME280;41156;51.508;5.406;2023-02-10T03:30:27;103524.28;;;-1.31;100.00
54042;BME280;41156;51.508;5.406;2023-02-10T03:33:28;103522.69;;;-1.35;100.00
54042;BME280;41156;51.508;5.406;2023-02-10T03:36:28;103525.47;;;-1.38;100.00
54042;BME280;41156;51.508;5.406;2023-02-10T03:39:28;103530.00;;;-1.40;100.00
54042;BME280;41156;51.508;5.406;2023-02-10T03:42:28;103526.69;;;-1.45;100.00
54042;BME280;41156;51.508;5.406;2023-02-10T03:45:29;103530.31;;;-1.46;100.00
54042;BME280;41156;51.508;5.406;2023-02-10T03:48:29;103519.91;;;-1.51;100.00
54042;BME280;41156;51.508;5.406;2023-02-10T03:51:31;103526.13;;;-1.52;100.00
54042;BME280;41156;51.508;5.406;2023-02-10T03:54:32;103525.41;;;-1.56;100.00
54042;BME280;41156;51.508;5.406;2023-02-10T03:57:32;103526.31;;;-1.57;100.00
54042;BME280;41156;51.508;5.406;2023-02-10T04:00:32;103531.69;;;-1.58;100.00
54042;BME280;41156;51.508;5.406;2023-02-10T04:03:32;103534.44;;;-1.60;100.00
54042;BME280;41156;51.508;5.406;2023-02-10T04:06:33;103533.56;;;-1.60;100.00
54042;BME280;41156;51.508;5.406;2023-02-10T04:09:33;103527.47;;;-1.62;100.00
54042;BME280;41156;51.508;5.406;2023-02-10T04:12:33;103528.44;;;-1.65;100.00
54042;BME280;41156;51.508;5.406;2023-02-10T04:15:34;103530.25;;;-1.65;100.00
54042;BME280;41156;51.508;5.406;2023-02-10T04:18:34;103527.66;;;-1.67;100.00
54042;BME280;41156;51.508;5.406;2023-02-10T04:21:35;103526.75;;;-1.66;100.00
54042;BME280;41156;51.508;5.406;2023-02-10T04:24:35;103526.69;;;-1.64;100.00
54042;BME280;41156;51.508;5.406;2023-02-10T04:27:35;103534.28;;;-1.57;100.00
54042;BME280;41156;51.508;5.406;2023-02-10T04:30:36;103525.56;;;-1.40;100.00
54042;BME280;41156;51.508;5.406;2023-02-10T04:33:36;103527.31;;;-1.20;100.00
54042;BME280;41156;51.508;5.406;2023-02-10T04:36:36;103540.50;;;-0.99;100.00
54042;BME280;41156;51.508;5.406;2023-02-10T04:39:38;103533.44;;;-0.81;100.00
54042;BME280;41156;51.508;5.406;2023-02-10T04:42:38;103532.75;;;-0.67;100.00
54042;BME280;41156;51.508;5.406;2023-02-10T04:45:39;103532.97;;;-0.53;100.00
54042;BME280;41156;51.508;5.406;2023-02-10T04:48:39;103531.41;;;-0.40;100.00
54042;BME280;41156;51.508;5.406;2023-02-10T04:51:39;103537.91;;;-0.28;100.00
54042;BME280;41156;51.508;5.406;2023-02-10T04:54:40;103540.00;;;-0.17;100.00
54042;BME280;41156;51.508;5.406;2023-02-10T04:57:40;103528.91;;;-0.08;100.00
54042;BME280;41156;51.508;5.406;2023-02-10T05:00:40;103532.66;;;0.06;100.00
54042;BME280;41156;51.508;5.406;2023-02-10T05:03:41;103536.63;;;0.14;100.00
54042;BME280;41156;51.508;5.406;2023-02-10T05:06:41;103534.50;;;0.21;100.00
54042;BME280;41156;51.508;5.406;2023-02-10T05:09:41;103532.47;;;0.26;100.00
54042;BME280;41156;51.508;5.406;2023-02-10T05:12:42;103541.84;;;0.33;100.00
54042;BME280;41156;51.508;5.406;2023-02-10T05:15:42;103555.69;;;0.40;100.00
54042;BME280;41156;51.508;5.406;2023-02-10T05:18:42;103553.66;;;0.45;100.00
54042;BME280;41156;51.508;5.406;2023-02-10T05:21:43;103554.19;;;0.52;100.00
54042;BME280;41156;51.508;5.406;2023-02-10T05:24:43;103553.06;;;0.56;100.00
54042;BME280;41156;51.508;5.406;2023-02-10T05:27:43;103544.91;;;0.59;100.00
54042;BME280;41156;51.508;5.406;2023-02-10T05:30:43;103545.59;;;0.63;100.00
54042;BME280;41156;51.508;5.406;2023-02-10T05:33:44;103548.94;;;0.66;100.00
54042;BME280;41156;51.508;5.406;2023-02-10T05:36:44;103545.19;;;0.70;100.00
54042;BME280;41156;51.508;5.406;2023-02-10T05:39:45;103546.81;;;0.73;100.00
54042;BME280;41156;51.508;5.406;2023-02-10T05:42:45;103544.94;;;0.75;100.00
54042;BME280;41156;51.508;5.406;2023-02-10T05:45:46;103561.59;;;0.79;100.00
54042;BME280;41156;51.508;5.406;2023-02-10T05:48:46;103561.59;;;0.79;100.00
54042;BME280;41156;51.508;5.406;2023-02-10T05:51:47;103563.22;;;0.81;100.00
54042;BME280;41156;51.508;5.406;2023-02-10T05:54:47;103556.00;;;0.83;100.00
54042;BME280;41156;51.508;5.406;2023-02-10T05:57:47;103550.59;;;0.85;100.00
54042;BME280;41156;51.508;5.406;2023-02-10T06:00:47;103558.50;;;0.86;100.00
54042;BME280;41156;51.508;5.406;2023-02-10T06:03:48;103562.91;;;0.87;100.00
54042;BME280;41156;51.508;5.406;2023-02-10T06:06:48;103559.31;;;0.88;100.00
54042;BME280;41156;51.508;5.406;2023-02-10T06:09:48;103556.44;;;0.91;100.00
54042;BME280;41156;51.508;5.406;2023-02-10T06:12:49;103551.13;;;0.91;100.00
54042;BME280;41156;51.508;5.406;2023-02-10T06:15:49;103560.75;;;0.94;100.00
54042;BME280;41156;51.508;5.406;2023-02-10T06:18:50;103559.75;;;0.97;100.00
54042;BME280;41156;51.508;5.406;2023-02-10T06:21:50;103556.13;;;0.98;100.00
54042;BME280;41156;51.508;5.406;2023-02-10T06:24:50;103556.03;;;0.99;100.00
54042;BME280;41156;51.508;5.406;2023-02-10T06:27:51;103562.13;;;1.01;100.00
54042;BME280;41156;51.508;5.406;2023-02-10T06:30:51;103558.44;;;1.04;100.00
54042;BME280;41156;51.508;5.406;2023-02-10T06:33:52;103555.63;;;1.07;100.00
54042;BME280;41156;51.508;5.406;2023-02-10T06:36:52;103559.91;;;1.09;100.00
54042;BME280;41156;51.508;5.406;2023-02-10T06:39:52;103565.06;;;1.13;100.00
54042;BME280;41156;51.508;5.406;2023-02-10T06:42:53;103571.16;;;1.15;100.00
54042;BME280;41156;51.508;5.406;2023-02-10T06:45:53;103565.66;;;1.18;100.00
54042;BME280;41156;51.508;5.406;2023-02-10T06:48:53;103559.41;;;1.19;100.00
54042;BME280;41156;51.508;5.406;2023-02-10T06:51:53;103554.75;;;1.22;100.00
54042;BME280;41156;51.508;5.406;2023-02-10T06:54:55;103558.94;;;1.26;100.00
54042;BME280;41156;51.508;5.406;2023-02-10T06:57:58;103550.78;;;1.29;100.00
54042;BME280;41156;51.508;5.406;2023-02-10T07:00:59;103555.00;;;1.34;100.00
54042;BME280;41156;51.508;5.406;2023-02-10T07:04:00;103561.94;;;1.36;100.00
54042;BME280;41156;51.508;5.406;2023-02-10T07:07:01;103559.88;;;1.41;100.00
54042;BME280;41156;51.508;5.406;2023-02-10T07:10:01;103574.75;;;1.45;100.00
54042;BME280;41156;51.508;5.406;2023-02-10T07:13:02;103584.44;;;1.46;100.00
54042;BME280;41156;51.508;5.406;2023-02-10T07:16:02;103599.34;;;1.51;100.00
54042;BME280;41156;51.508;5.406;2023-02-10T07:19:02;103591.16;;;1.54;100.00
54042;BME280;41156;51.508;5.406;2023-02-10T07:22:03;103584.78;;;1.56;100.00
54042;BME280;41156;51.508;5.406;2023-02-10T07:25:06;103578.25;;;1.62;100.00
54042;BME280;41156;51.508;5.406;2023-02-10T07:28:06;103586.94;;;1.65;100.00
54042;BME280;41156;51.508;5.406;2023-02-10T07:31:08;103592.94;;;1.69;100.00
54042;BME280;41156;51.508;5.406;2023-02-10T07:34:08;103596.28;;;1.73;100.00
54042;BME280;41156;51.508;5.406;2023-02-10T07:37:08;103596.03;;;1.77;100.00
54042;BME280;41156;51.508;5.406;2023-02-10T07:40:09;103584.34;;;1.80;100.00
54042;BME280;41156;51.508;5.406;2023-02-10T07:43:09;103584.94;;;1.85;100.00
54042;BME280;41156;51.508;5.406;2023-02-10T07:46:10;103591.69;;;1.91;100.00
54042;BME280;41156;51.508;5.406;2023-02-10T07:49:10;103588.75;;;1.95;100.00
54042;BME280;41156;51.508;5.406;2023-02-10T07:52:11;103588.50;;;2.00;100.00
54042;BME280;41156;51.508;5.406;2023-02-10T07:55:11;103592.78;;;2.02;100.00
54042;BME280;41156;51.508;5.406;2023-02-10T07:58:12;103592.41;;;2.09;100.00
54042;BME280;41156;51.508;5.406;2023-02-10T08:01:13;103585.84;;;2.14;100.00
54042;BME280;41156;51.508;5.406;2023-02-10T08:04:13;103585.66;;;2.17;100.00
54042;BME280;41156;51.508;5.406;2023-02-10T08:07:14;103604.91;;;2.22;100.00
54042;BME280;41156;51.508;5.406;2023-02-10T08:10:14;103600.16;;;2.28;100.00
54042;BME280;41156;51.508;5.406;2023-02-10T08:13:15;103612.38;;;2.32;100.00
54042;BME280;41156;51.508;5.406;2023-02-10T08:16:15;103619.41;;;2.33;100.00
54042;BME280;41156;51.508;5.406;2023-02-10T08:19:15;103623.63;;;2.37;100.00
54042;BME280;41156;51.508;5.406;2023-02-10T08:22:16;103626.97;;;2.40;100.00
54042;BME280;41156;51.508;5.406;2023-02-10T08:25:16;103615.25;;;2.43;100.00
54042;BME280;41156;51.508;5.406;2023-02-10T08:28:17;103605.16;;;2.48;100.00
54042;BME280;41156;51.508;5.406;2023-02-10T08:31:17;103610.38;;;2.50;100.00
54042;BME280;41156;51.508;5.406;2023-02-10T08:34:19;103612.13;;;2.51;100.00
54042;BME280;41156;51.508;5.406;2023-02-10T08:37:20;103624.44;;;2.53;100.00
54042;BME280;41156;51.508;5.406;2023-02-10T08:40:21;103632.34;;;2.55;100.00
54042;BME280;41156;51.508;5.406;2023-02-10T08:43:22;103637.56;;;2.56;100.00
54042;BME280;41156;51.508;5.406;2023-02-10T08:46:22;103643.41;;;2.63;100.00
54042;BME280;41156;51.508;5.406;2023-02-10T08:49:22;103637.59;;;2.71;100.00
54042;BME280;41156;51.508;5.406;2023-02-10T08:52:25;103635.50;;;2.76;100.00
54042;BME280;41156;51.508;5.406;2023-02-10T08:55:25;103618.16;;;2.83;100.00
54042;BME280;41156;51.508;5.406;2023-02-10T08:58:25;103613.56;;;2.85;100.00
54042;BME280;41156;51.508;5.406;2023-02-10T09:01:26;103615.25;;;2.86;100.00
54042;BME280;41156;51.508;5.406;2023-02-10T09:04:26;103615.25;;;2.86;100.00
54042;BME280;41156;51.508;5.406;2023-02-10T09:07:26;103620.59;;;2.86;100.00
54042;BME280;41156;51.508;5.406;2023-02-10T09:10:27;103617.66;;;2.91;100.00
54042;BME280;41156;51.508;5.406;2023-02-10T09:13:27;103624.31;;;2.98;100.00
54042;BME280;41156;51.508;5.406;2023-02-10T09:16:27;103632.06;;;3.03;100.00
54042;BME280;41156;51.508;5.406;2023-02-10T09:19:28;103627.19;;;3.09;100.00
54042;BME280;41156;51.508;5.406;2023-02-10T09:22:28;103624.13;;;3.15;100.00
54042;BME280;41156;51.508;5.406;2023-02-10T09:25:28;103627.28;;;3.22;100.00
54042;BME280;41156;51.508;5.406;2023-02-10T09:28:29;103628.38;;;3.32;100.00
54042;BME280;41156;51.508;5.406;2023-02-10T09:31:29;103626.75;;;3.44;100.00
54042;BME280;41156;51.508;5.406;2023-02-10T09:34:29;103634.06;;;3.55;100.00
54042;BME280;41156;51.508;5.406;2023-02-10T09:37:31;103639.00;;;3.61;100.00
54042;BME280;41156;51.508;5.406;2023-02-10T09:40:34;103641.00;;;3.72;100.00
54042;BME280;41156;51.508;5.406;2023-02-10T09:47:31;103630.91;;;3.90;100.00
54042;BME280;41156;51.508;5.406;2023-02-10T09:53:43;103629.31;;;4.00;100.00
54042;BME280;41156;51.508;5.406;2023-02-10T09:56:44;103619.34;;;4.02;100.00
54042;BME280;41156;51.508;5.406;2023-02-10T09:59:46;103627.94;;;4.07;100.00
54042;BME280;41156;51.508;5.406;2023-02-10T10:02:51;103631.69;;;4.18;100.00
54042;BME280;41156;51.508;5.406;2023-02-10T10:06:02;103634.69;;;4.26;100.00
54042;BME280;41156;51.508;5.406;2023-02-10T10:12:09;103624.78;;;4.54;100.00
54042;BME280;41156;51.508;5.406;2023-02-10T10:15:18;103631.31;;;4.75;100.00
54042;BME280;41156;51.508;5.406;2023-02-10T10:18:27;103642.03;;;4.88;100.00
54042;BME280;41156;51.508;5.406;2023-02-10T10:21:52;103643.50;;;5.05;100.00
54042;BME280;41156;51.508;5.406;2023-02-10T10:28:34;103645.50;;;5.27;100.00
54042;BME280;41156;51.508;5.406;2023-02-10T10:31:37;103647.22;;;5.28;100.00
54042;BME280;41156;51.508;5.406;2023-02-10T10:34:43;103636.38;;;5.30;100.00
54042;BME280;41156;51.508;5.406;2023-02-10T10:37:46;103640.13;;;5.27;100.00
54042;BME280;41156;51.508;5.406;2023-02-10T10:40:48;103638.53;;;5.25;100.00
54042;BME280;41156;51.508;5.406;2023-02-10T10:43:53;103637.00;;;5.33;100.00
54042;BME280;41156;51.508;5.406;2023-02-10T10:47:04;103636.84;;;5.48;100.00
54042;BME280;41156;51.508;5.406;2023-02-10T10:50:15;103640.22;;;5.63;100.00
54042;BME280;41156;51.508;5.406;2023-02-10T10:53:21;103636.44;;;5.78;100.00
54042;BME280;41156;51.508;5.406;2023-02-10T10:59:48;103624.22;;;6.09;100.00
54042;BME280;41156;51.508;5.406;2023-02-10T11:03:00;103618.75;;;6.11;100.00
54042;BME280;41156;51.508;5.406;2023-02-10T11:06:11;103612.25;;;6.02;100.00
54042;BME280;41156;51.508;5.406;2023-02-10T11:12:33;103613.47;;;5.98;100.00
54042;BME280;41156;51.508;5.406;2023-02-10T11:15:37;103611.06;;;6.06;100.00
54042;BME280;41156;51.508;5.406;2023-02-10T11:18:38;103605.59;;;6.08;100.00
54042;BME280;41156;51.508;5.406;2023-02-10T11:21:39;103599.38;;;6.19;100.00
54042;BME280;41156;51.508;5.406;2023-02-10T11:24:50;103596.84;;;6.28;100.00
54042;BME280;41156;51.508;5.406;2023-02-10T11:27:55;103597.09;;;6.37;100.00
54042;BME280;41156;51.508;5.406;2023-02-10T11:31:15;103595.03;;;6.40;100.00
54042;BME280;41156;51.508;5.406;2023-02-10T11:34:28;103603.84;;;6.54;100.00
54042;BME280;41156;51.508;5.406;2023-02-10T11:37:33;103599.81;;;6.71;100.00
54042;BME280;41156;51.508;5.406;2023-02-10T11:40:50;103598.84;;;6.83;100.00
54042;BME280;41156;51.508;5.406;2023-02-10T11:43:51;103595.91;;;6.97;100.00
54042;BME280;41156;51.508;5.406;2023-02-10T11:47:00;103594.16;;;7.08;100.00
54042;BME280;41156;51.508;5.406;2023-02-10T11:50:01;103589.78;;;7.18;100.00
54042;BME280;41156;51.508;5.406;2023-02-10T11:53:01;103592.69;;;7.26;100.00
54042;BME280;41156;51.508;5.406;2023-02-10T11:56:06;103588.28;;;7.36;100.00
54042;BME280;41156;51.508;5.406;2023-02-10T12:06:23;103565.19;;;7.66;100.00
54042;BME280;41156;51.508;5.406;2023-02-10T12:09:38;103561.63;;;7.66;100.00
54042;BME280;41156;51.508;5.406;2023-02-10T12:12:47;103554.28;;;7.68;100.00
54042;BME280;41156;51.508;5.406;2023-02-10T12:19:41;103552.06;;;7.94;100.00
54042;BME280;41156;51.508;5.406;2023-02-10T12:29:43;103552.19;;;8.34;100.00
54042;BME280;41156;51.508;5.406;2023-02-10T12:36:25;103551.00;;;8.48;99.03
54042;BME280;41156;51.508;5.406;2023-02-10T12:43:04;103548.44;;;8.78;100.00
54042;BME280;41156;51.508;5.406;2023-02-10T12:49:49;103537.41;;;9.00;94.75
54042;BME280;41156;51.508;5.406;2023-02-10T12:53:12;103529.47;;;9.08;92.55
54042;BME280;41156;51.508;5.406;2023-02-10T12:56:27;103522.09;;;9.11;99.71
54042;BME280;41156;51.508;5.406;2023-02-10T12:59:49;103525.06;;;9.07;91.07
54042;BME280;41156;51.508;5.406;2023-02-10T13:02:56;103520.69;;;9.06;96.28
54042;BME280;41156;51.508;5.406;2023-02-10T13:13:05;103523.25;;;9.37;93.75
54042;BME280;41156;51.508;5.406;2023-02-10T13:16:13;103504.78;;;9.52;93.79
54042;BME280;41156;51.508;5.406;2023-02-10T13:29:58;103485.81;;;10.11;85.77
54042;BME280;41156;51.508;5.406;2023-02-10T13:36:15;103480.41;;;10.11;87.59
54042;BME280;41156;51.508;5.406;2023-02-10T13:39:20;103480.13;;;10.04;89.48
54042;BME280;41156;51.508;5.406;2023-02-10T13:42:32;103484.16;;;9.90;91.73
54042;BME280;41156;51.508;5.406;2023-02-10T13:45:36;103479.03;;;9.87;92.45
54042;BME280;41156;51.508;5.406;2023-02-10T13:48:37;103483.72;;;9.95;92.86
54042;BME280;41156;51.508;5.406;2023-02-10T13:51:38;103479.44;;;9.92;91.10
54042;BME280;41156;51.508;5.406;2023-02-10T13:54:38;103475.75;;;9.93;91.25
54042;BME280;41156;51.508;5.406;2023-02-10T13:57:51;103482.56;;;9.97;87.20
54042;BME280;41156;51.508;5.406;2023-02-10T14:00:54;103472.09;;;9.85;91.18
54042;BME280;41156;51.508;5.406;2023-02-10T14:03:56;103483.06;;;9.54;91.20
54042;BME280;41156;51.508;5.406;2023-02-10T14:06:56;103491.75;;;9.28;92.94
54042;BME280;41156;51.508;5.406;2023-02-10T14:13:20;103481.50;;;8.93;93.05
54042;BME280;41156;51.508;5.406;2023-02-10T14:19:31;103476.28;;;8.60;93.78
54042;BME280;41156;51.508;5.406;2023-02-10T14:22:34;103470.56;;;8.44;95.10
54042;BME280;41156;51.508;5.406;2023-02-10T14:25:39;103467.34;;;8.29;96.48
54042;BME280;41156;51.508;5.406;2023-02-10T14:28:42;103476.97;;;8.22;96.99
54042;BME280;41156;51.508;5.406;2023-02-10T14:31:51;103468.13;;;8.10;97.69
54042;BME280;41156;51.508;5.406;2023-02-10T14:34:58;103473.06;;;8.05;97.74
54042;BME280;41156;51.508;5.406;2023-02-10T14:37:59;103467.22;;;8.00;98.82
54042;BME280;41156;51.508;5.406;2023-02-10T14:40:59;103475.44;;;7.98;98.99
54042;BME280;41156;51.508;5.406;2023-02-10T14:44:00;103473.84;;;7.95;98.73
54042;BME280;41156;51.508;5.406;2023-02-10T14:47:01;103471.09;;;7.86;99.45
54042;BME280;41156;51.508;5.406;2023-02-10T14:50:03;103474.34;;;7.80;99.20
54042;BME280;41156;51.508;5.406;2023-02-10T14:53:04;103469.34;;;7.75;99.91
54042;BME280;41156;51.508;5.406;2023-02-10T14:56:05;103472.03;;;7.75;100.00
54042;BME280;41156;51.508;5.406;2023-02-10T14:59:18;103483.75;;;7.74;100.00
54042;BME280;41156;51.508;5.406;2023-02-10T15:02:21;103486.25;;;7.66;100.00
54042;BME280;41156;51.508;5.406;2023-02-10T15:05:22;103481.88;;;7.65;100.00
54042;BME280;41156;51.508;5.406;2023-02-10T15:08:45;103486.94;;;7.58;100.00
54042;BME280;41156;51.508;5.406;2023-02-10T15:11:53;103477.66;;;7.51;100.00
54042;BME280;41156;51.508;5.406;2023-02-10T15:15:32;103476.72;;;7.40;100.00
54042;BME280;41156;51.508;5.406;2023-02-10T15:18:37;103473.94;;;7.31;100.00
54042;BME280;41156;51.508;5.406;2023-02-10T15:21:39;103475.13;;;7.17;100.00
54042;BME280;41156;51.508;5.406;2023-02-10T15:24:39;103475.63;;;7.11;100.00
54042;BME280;41156;51.508;5.406;2023-02-10T15:27:40;103474.44;;;7.03;100.00
54042;BME280;41156;51.508;5.406;2023-02-10T15:31:04;103470.53;;;6.96;100.00
54042;BME280;41156;51.508;5.406;2023-02-10T15:34:26;103469.06;;;6.92;100.00
54042;BME280;41156;51.508;5.406;2023-02-10T15:37:27;103465.19;;;6.85;100.00
54042;BME280;41156;51.508;5.406;2023-02-10T15:40:32;103463.59;;;6.82;100.00
54042;BME280;41156;51.508;5.406;2023-02-10T15:43:32;103464.00;;;6.78;100.00
54042;BME280;41156;51.508;5.406;2023-02-10T15:46:35;103469.97;;;6.70;100.00
54042;BME280;41156;51.508;5.406;2023-02-10T15:49:35;103464.00;;;6.66;100.00
54042;BME280;41156;51.508;5.406;2023-02-10T15:52:44;103452.78;;;6.61;100.00
54042;BME280;41156;51.508;5.406;2023-02-10T15:55:45;103460.97;;;6.60;100.00
54042;BME280;41156;51.508;5.406;2023-02-10T15:58:45;103458.41;;;6.58;100.00
54042;BME280;41156;51.508;5.406;2023-02-10T16:01:46;103455.97;;;6.55;100.00
54042;BME280;41156;51.508;5.406;2023-02-10T16:04:46;103457.56;;;6.58;100.00
54042;BME280;41156;51.508;5.406;2023-02-10T16:07:47;103449.34;;;6.59;100.00
54042;BME280;41156;51.508;5.406;2023-02-10T16:10:47;103453.28;;;6.55;100.00
54042;BME280;41156;51.508;5.406;2023-02-10T16:13:48;103451.69;;;6.53;100.00
54042;BME280;41156;51.508;5.406;2023-02-10T16:16:56;103443.00;;;6.49;100.00
54042;BME280;41156;51.508;5.406;2023-02-10T16:19:56;103458.28;;;6.48;100.00
54042;BME280;41156;51.508;5.406;2023-02-10T16:22:57;103455.72;;;6.47;100.00
54042;BME280;41156;51.508;5.406;2023-02-10T16:25:58;103460.25;;;6.46;100.00
54042;BME280;41156;51.508;5.406;2023-02-10T16:28:59;103448.91;;;6.43;100.00
54042;BME280;41156;51.508;5.406;2023-02-10T16:31:59;103447.44;;;6.39;100.00
54042;BME280;41156;51.508;5.406;2023-02-10T16:34:59;103453.03;;;6.36;100.00
54042;BME280;41156;51.508;5.406;2023-02-10T16:38:00;103461.34;;;6.33;100.00
54042;BME280;41156;51.508;5.406;2023-02-10T16:41:00;103470.28;;;6.33;100.00
54042;BME280;41156;51.508;5.406;2023-02-10T16:44:00;103463.28;;;6.30;100.00
54042;BME280;41156;51.508;5.406;2023-02-10T16:47:00;103458.03;;;6.29;100.00
54042;BME280;41156;51.508;5.406;2023-02-10T16:50:01;103447.53;;;6.26;100.00
54042;BME280;41156;51.508;5.406;2023-02-10T16:53:01;103454.88;;;6.24;100.00
54042;BME280;41156;51.508;5.406;2023-02-10T16:56:04;103456.72;;;6.23;100.00
54042;BME280;41156;51.508;5.406;2023-02-10T16:59:05;103447.19;;;6.19;100.00
54042;BME280;41156;51.508;5.406;2023-02-10T17:02:05;103452.94;;;6.15;100.00
54042;BME280;41156;51.508;5.406;2023-02-10T17:05:07;103447.69;;;6.13;100.00
54042;BME280;41156;51.508;5.406;2023-02-10T17:08:07;103442.44;;;6.11;100.00
54042;BME280;41156;51.508;5.406;2023-02-10T17:11:07;103433.63;;;6.09;100.00
54042;BME280;41156;51.508;5.406;2023-02-10T17:14:09;103453.28;;;6.10;100.00
54042;BME280;41156;51.508;5.406;2023-02-10T17:17:10;103457.66;;;6.11;100.00
54042;BME280;41156;51.508;5.406;2023-02-10T17:20:21;103448.66;;;6.12;100.00
54042;BME280;41156;51.508;5.406;2023-02-10T17:23:21;103452.31;;;6.11;100.00
54042;BME280;41156;51.508;5.406;2023-02-10T17:26:22;103442.56;;;6.10;100.00
54042;BME280;41156;51.508;5.406;2023-02-10T17:29:22;103455.97;;;6.10;100.00